Elwood, Utah
Current Conditions -  °F | °C
As of 7:15 AM on Saturday 22 Nov 2014 (Local Time) from KBMC Reporting Station
Overcast Overcast  
Wind Chill: 39°   Ceiling: 6000
Heat Index: 45°   Visibility: 10mi
Dew Point: 26°   Wind: 12mph
Humidity: 47%   Direction: 220°SW
Pressure: 29.84"   Gusts: 16mph
Location:  41.6836°N, 112.26°W
Report Text: KBMC 221415Z AUTO 22010G14KT 10SM OVC060 07/M03 A2984 RMK AO1 T00721035
Loading
Personal Weather Stations






























Interactive Weather Map New forecast layout! Learn more

10-Day Weather Forecast

Advertisements
Track Severe Weather on mobile